Time;durP1;ratioP1;P1;durP2;ratioP2;P2;SDS_P1;SDS_P2;PMS_P1;PMS_P2;Temp;Humidity;BMP_temperature;BMP_pressure;BME280_temperature;BME280_humidity;BME280_pressure;Samples;Min_cycle;Max_cycle;Signal;HPM_P1;HPM_P2
2023/06/17 00:04:10;;;;;;;4.77;4.10;;;23.90;45.00;;;;;;4955656;28;20485;-82
2023/06/17 00:07:05;;;;;;;4.97;4.57;;;23.90;45.10;;;;;;4933696;29;20539;-85
2023/06/17 00:10:20;;;;;;;4.33;3.93;;;23.80;45.00;;;;;;4930146;29;20469;-82
2023/06/17 00:13:39;;;;;;;4.50;4.10;;;23.90;45.10;;;;;;4927712;29;20514;-85
2023/06/17 00:19:42;;;;;;;5.00;4.50;;;23.80;45.20;;;;;;4941330;29;20481;-84
2023/06/17 00:22:57;;;;;;;4.40;4.00;;;23.80;45.30;;;;;;4929707;29;20474;-85
2023/06/17 00:25:46;;;;;;;5.10;4.03;;;23.70;45.50;;;;;;4928903;29;20501;-85
2023/06/17 00:28:59;;;;;;;6.10;4.87;;;23.50;45.60;;;;;;4937071;29;20521;-84
2023/06/17 00:55:56;;;;;;;;;;;;;;;;;;;;;
2023/06/17 00:59:11;;;;;;;;;;;;;;;;;;;;;
2023/06/17 01:02:00;;;;;;;6.07;5.30;;;23.70;46.80;;;;;;4905799;29;20500;-83
2023/06/17 01:05:14;;;;;;;5.60;5.10;;;23.50;46.80;;;;;;4879056;29;20454;-84
2023/06/17 01:08:28;;;;;;;5.50;4.87;;;23.30;47.20;;;;;;4865709;29;20451;-84
2023/06/17 01:12:04;;;;;;;5.30;4.90;;;23.30;47.50;;;;;;4891348;29;20548;-84
2023/06/17 01:14:51;;;;;;;6.57;5.90;;;23.10;47.90;;;;;;4925647;29;20456;-85
2023/06/17 01:18:04;;;;;;;6.10;5.60;;;23.20;50.70;;;;;;4905509;29;20447;-85
2023/06/17 01:21:08;;;;;;;7.00;5.87;;;23.20;52.40;;;;;;4897207;29;20542;-84
2023/06/17 01:25:09;;;;;;;7.10;6.40;;;23.10;53.50;;;;;;4902877;29;20479;-84
2023/06/17 01:27:54;;;;;;;6.83;5.97;;;23.10;54.10;;;;;;4915709;29;20519;-85
2023/06/17 01:30:38;;;;;;;7.77;6.10;;;23.00;54.50;;;;;;4893103;29;20452;-85
2023/06/17 01:33:54;;;;;;;7.40;6.23;;;23.00;54.10;;;;;;4888673;29;20472;-86
2023/06/17 01:37:41;;;;;;;7.50;6.70;;;22.90;54.70;;;;;;4909872;29;20420;-84
2023/06/17 01:41:01;;;;;;;7.97;6.97;;;22.80;55.00;;;;;;4905329;29;20482;-83
2023/06/17 01:45:07;;;;;;;;;;;;;;;;;;;;;
2023/06/17 01:47:34;;;;;;;8.93;7.50;;;23.00;56.00;;;;;;4902737;29;20439;-82
2023/06/17 01:53:40;;;;;;;7.83;7.13;;;22.80;57.10;;;;;;5187852;23;20490;-84
2023/06/17 01:57:03;;;;;;;7.60;6.90;;;22.70;57.10;;;;;;4901764;29;20466;-85
2023/06/17 02:01:00;;;;;;;7.07;6.33;;;22.30;57.60;;;;;;4907818;29;20495;-85
2023/06/17 02:03:53;;;;;;;7.43;6.60;;;22.00;58.60;;;;;;4946864;29;20461;-85
2023/06/17 02:12:55;;;;;;;7.93;7.20;;;22.00;60.90;;;;;;4982653;23;20509;-82
2023/06/17 02:19:15;;;;;;;8.30;7.50;;;22.00;61.00;;;;;;4862067;29;20485;-83
2023/06/17 02:22:28;;;;;;;9.07;8.27;;;21.70;61.60;;;;;;4793837;29;20474;-82
2023/06/17 02:29:21;;;;;;;7.23;6.53;;;21.60;63.00;;;;;;4748263;30;20472;-84
2023/06/17 02:47:19;;;;;;;5.70;5.13;;;21.40;58.30;;;;;;820667;26;20776;-84
2023/06/17 02:50:15;;;;;;;5.77;5.17;;;21.50;56.30;;;;;;4932295;28;20592;-84
2023/06/17 02:53:32;;;;;;;;;;;;;;;;;;;;;
2023/06/17 02:56:39;;;;;;;6.40;5.80;;;21.70;54.50;;;;;;4964413;28;20441;-84
2023/06/17 03:00:15;;;;;;;6.67;6.07;;;21.50;54.80;;;;;;4917573;29;20486;-83
2023/06/17 03:03:37;;;;;;;8.10;7.20;;;21.50;55.70;;;;;;4906536;29;21379;-82
2023/06/17 03:06:52;;;;;;;;;;;;;;;;;;;;;
2023/06/17 03:13:53;;;;;;;9.60;7.77;;;21.00;64.20;;;;;;4959761;28;21101;-83
2023/06/17 03:17:29;;;;;;;;;;;;;;;;;;;;;
2023/06/17 03:20:46;;;;;;;8.10;7.30;;;20.70;66.30;;;;;;4894626;29;20475;-84
2023/06/17 03:23:48;;;;;;;11.23;9.80;;;20.70;67.70;;;;;;4893600;29;20465;-84
2023/06/17 03:27:03;;;;;;;8.33;7.53;;;20.60;68.00;;;;;;4881339;29;20456;-85
2023/06/17 03:30:10;;;;;;;11.07;7.97;;;20.60;67.20;;;;;;4894399;29;20455;-84
2023/06/17 03:33:37;;;;;;;8.57;7.33;;;20.50;67.20;;;;;;4876530;29;20448;-84
2023/06/17 03:40:34;;;;;;;8.07;7.27;;;20.10;67.50;;;;;;4890475;29;20487;-85
2023/06/17 03:43:07;;;;;;;8.67;7.43;;;19.90;68.60;;;;;;4899189;29;20500;-84
2023/06/17 03:46:15;;;;;;;8.40;7.60;;;19.80;68.90;;;;;;4875983;29;20439;-85
2023/06/17 03:49:08;;;;;;;8.10;6.80;;;19.80;69.50;;;;;;4952949;28;20535;-84
2023/06/17 03:52:27;;;;;;;8.77;7.87;;;19.90;69.60;;;;;;4895927;29;20520;-84
2023/06/17 03:56:13;;;;;;;8.70;7.70;;;19.90;70.30;;;;;;4844823;29;20644;-82
2023/06/17 04:02:51;;;;;;;;;;;;;;;;;;;;;
2023/06/17 04:06:06;;;;;;;8.10;7.40;;;19.70;71.20;;;;;;4884442;29;20464;-83
2023/06/17 04:09:10;;;;;;;;;;;;;;;;;;;;;
2023/06/17 04:15:03;;;;;;;9.07;7.43;;;19.80;70.70;;;;;;4970057;28;20561;-83
2023/06/17 04:18:18;;;;;;;8.57;7.67;;;19.70;71.10;;;;;;4965979;28;20414;-81
2023/06/17 04:21:47;;;;;;;8.73;7.80;;;19.60;70.90;;;;;;4959152;28;20476;-81
2023/06/17 04:25:06;;;;;;;8.60;7.70;;;19.60;72.00;;;;;;4953239;28;20711;-84
2023/06/17 04:28:18;;;;;;;8.90;8.00;;;19.50;71.90;;;;;;4905134;28;20447;-83
2023/06/17 04:31:37;;;;;;;;;;;;;;;;;;;;;
2023/06/17 04:44:34;;;;;;;8.73;7.83;;;19.70;74.10;;;;;;3155928;26;20478;-84
2023/06/17 04:47:41;;;;;;;;;;;;;;;;;;;;;
2023/06/17 04:51:07;;;;;;;8.80;7.90;;;19.40;75.40;;;;;;4923957;29;20454;-84
2023/06/17 04:54:07;;;;;;;8.90;8.00;;;19.70;75.80;;;;;;4926232;29;20477;-84
2023/06/17 04:57:32;;;;;;;9.30;8.30;;;19.70;75.20;;;;;;4915448;29;20426;-83
2023/06/17 05:00:39;;;;;;;9.13;8.23;;;19.90;74.20;;;;;;4882423;29;20516;-85
2023/06/17 05:04:08;;;;;;;9.70;8.43;;;19.90;73.90;;;;;;4877068;29;20536;-85
2023/06/17 05:07:30;;;;;;;9.83;8.87;;;19.70;73.60;;;;;;4815949;29;20673;-84
2023/06/17 05:10:40;;;;;;;9.17;8.27;;;19.70;74.90;;;;;;4805751;29;20454;-85
2023/06/17 05:13:50;;;;;;;7.73;7.03;;;19.70;74.40;;;;;;4800145;29;20969;-85
2023/06/17 05:16:49;;;;;;;9.90;8.80;;;19.70;73.50;;;;;;4736225;30;20554;-84
2023/06/17 05:19:59;;;;;;;10.50;7.87;;;19.70;74.10;;;;;;4844487;29;20490;-84
2023/06/17 05:23:01;;;;;;;9.57;8.20;;;19.50;73.80;;;;;;4829390;29;20446;-84
2023/06/17 05:26:21;;;;;;;9.07;8.17;;;19.50;75.40;;;;;;4851765;29;20459;-83
2023/06/17 05:29:46;;;;;;;12.30;8.40;;;19.50;76.10;;;;;;4830029;29;20462;-83
2023/06/17 05:36:48;;;;;;;9.40;8.30;;;19.50;75.80;;;;;;4800076;29;20525;-84
2023/06/17 06:08:32;;;;;;;9.70;7.90;;;20.20;74.10;;;;;;4888212;29;21041;-84
2023/06/17 06:25:30;;;;;;;8.90;8.00;;;20.60;71.50;;;;;;4948807;28;20850;-82
2023/06/17 06:28:49;;;;;;;11.13;8.20;;;20.60;70.80;;;;;;4951117;28;20462;-83
2023/06/17 06:32:16;;;;;;;9.50;8.30;;;20.70;69.90;;;;;;4894780;29;20535;-83
2023/06/17 06:36:24;;;;;;;11.73;9.20;;;20.80;69.30;;;;;;4893071;29;20462;-84
2023/06/17 06:39:53;;;;;;;8.77;7.87;;;20.80;68.10;;;;;;4849322;29;20480;-83
2023/06/17 06:43:06;;;;;;;12.90;10.40;;;21.00;67.40;;;;;;4983619;23;20500;-84
2023/06/17 06:46:15;;;;;;;11.20;9.23;;;21.10;67.00;;;;;;4862209;29;20978;-83
2023/06/17 06:49:16;;;;;;;;;;;;;;;;;;;;;
2023/06/17 06:52:20;;;;;;;9.10;8.10;;;21.60;64.60;;;;;;4951413;23;20570;-83
2023/06/17 06:55:33;;;;;;;9.17;7.90;;;21.50;63.80;;;;;;4904289;29;20523;-84
2023/06/17 06:59:00;;;;;;;;;;;;;;;;;;;;;
2023/06/17 07:02:31;;;;;;;7.93;7.13;;;21.60;64.00;;;;;;4886040;29;20475;-84
2023/06/17 07:13:43;;;;;;;9.43;7.67;;;22.20;61.90;;;;;;4864197;29;20451;-86
2023/06/17 07:16:29;;;;;;;8.70;7.90;;;22.20;61.00;;;;;;4865171;29;20446;-85
2023/06/17 07:35:36;;;;;;;7.57;6.77;;;22.80;55.80;;;;;;4922749;29;20439;-83
2023/06/17 07:38:45;;;;;;;7.57;6.87;;;22.90;55.80;;;;;;4913692;29;20462;-83
2023/06/17 07:45:02;;;;;;;7.50;6.50;;;23.20;56.10;;;;;;5184426;23;20916;-84
2023/06/17 07:48:24;;;;;;;;;;;;;;;;;;;;;
2023/06/17 07:52:31;;;;;;;;;;;;;;;;;;;;;
2023/06/17 08:05:16;;;;;;;8.20;7.43;;;23.90;54.10;;;;;;4957344;28;20565;-83
2023/06/17 08:08:37;;;;;;;8.67;6.70;;;24.20;52.90;;;;;;4948975;28;20842;-84
2023/06/17 08:15:08;;;;;;;8.23;7.43;;;24.20;52.40;;;;;;4839662;29;20498;-82
2023/06/17 08:18:13;;;;;;;7.13;6.53;;;24.50;52.60;;;;;;4802784;29;20441;-84
2023/06/17 08:21:23;;;;;;;;;;;;;;;;;;;;;
2023/06/17 08:24:44;;;;;;;;;;;;;;;;;;;;;
2023/06/17 08:27:55;;;;;;;7.70;6.30;;;24.60;52.00;;;;;;4748992;30;20469;-84
2023/06/17 08:30:51;;;;;;;7.37;6.67;;;25.10;50.70;;;;;;4758575;30;20577;-86
2023/06/17 08:33:36;;;;;;;6.73;6.13;;;25.10;50.50;;;;;;4768941;30;20467;-84
2023/06/17 08:36:37;;;;;;;6.30;5.80;;;25.20;50.60;;;;;;4705746;30;20472;-83
2023/06/17 08:39:41;;;;;;;7.10;6.30;;;25.30;50.20;;;;;;4697393;30;20524;-85
2023/06/17 08:42:59;;;;;;;5.73;5.13;;;25.60;49.60;;;;;;4956292;23;20834;-84
2023/06/17 08:46:00;;;;;;;4.17;3.87;;;26.00;47.10;;;;;;4903136;29;20455;-85
2023/06/17 08:49:15;;;;;;;4.53;4.13;;;25.90;43.60;;;;;;4914827;29;20871;-84
2023/06/17 08:52:31;;;;;;;5.30;4.80;;;26.20;41.40;;;;;;4896993;29;20474;-84
2023/06/17 08:55:32;;;;;;;4.50;4.13;;;26.90;41.00;;;;;;4900346;29;20452;-82
2023/06/17 08:58:47;;;;;;;4.50;4.10;;;27.10;41.00;;;;;;4835815;29;20531;-84
2023/06/17 09:04:59;;;;;;;5.37;4.73;;;28.30;38.70;;;;;;5066840;23;20517;-82
2023/06/17 09:08:35;;;;;;;4.70;4.30;;;27.90;38.30;;;;;;4933979;29;20506;-86
2023/06/17 09:15:30;;;;;;;5.97;5.27;;;28.80;38.90;;;;;;3706502;26;20488;-86
2023/06/17 09:18:25;;;;;;;5.57;5.07;;;28.80;38.70;;;;;;4947905;29;20473;-84
2023/06/17 09:22:18;;;;;;;6.27;5.40;;;28.60;38.60;;;;;;4862757;29;20509;-83
2023/06/17 09:25:16;;;;;;;6.77;6.10;;;29.50;37.10;;;;;;4872175;29;20455;-83
2023/06/17 09:28:27;;;;;;;6.67;6.07;;;29.50;36.90;;;;;;4875549;29;20427;-84
2023/06/17 09:31:30;;;;;;;5.70;5.10;;;28.90;37.60;;;;;;4871856;29;20511;-83
2023/06/17 09:34:48;;;;;;;5.63;5.20;;;29.50;37.10;;;;;;4885442;29;20500;-85
2023/06/17 09:38:18;;;;;;;;;;;;;;;;;;;;;
2023/06/17 09:44:21;;;;;;;6.47;5.97;;;31.20;34.70;;;;;;4934645;23;20525;-82
2023/06/17 09:47:38;;;;;;;5.70;5.17;;;31.40;34.00;;;;;;4906034;29;20439;-85
2023/06/17 09:53:47;;;;;;;5.87;5.37;;;32.60;33.20;;;;;;5636992;23;20556;-84
2023/06/17 09:57:14;;;;;;;6.63;5.93;;;33.40;31.80;;;;;;4832409;29;20506;-84
2023/06/17 10:00:14;;;;;;;6.30;5.70;;;33.00;31.30;;;;;;4830386;29;20494;-85
2023/06/17 10:03:14;;;;;;;6.23;5.43;;;33.00;31.40;;;;;;4761916;30;20466;-86
2023/06/17 10:06:38;;;;;;;5.80;5.30;;;34.00;30.10;;;;;;4773519;29;20483;-84
2023/06/17 10:10:12;;;;;;;5.10;4.70;;;34.00;29.90;;;;;;4800959;29;20984;-84
2023/06/17 10:16:47;;;;;;;4.60;4.20;;;34.70;29.30;;;;;;4749064;30;20503;-83
2023/06/17 10:20:03;;;;;;;4.33;3.93;;;34.60;29.20;;;;;;4755137;30;20473;-84
2023/06/17 10:22:57;;;;;;;;;;;;;;;;;;;;;
2023/06/17 10:26:06;;;;;;;4.70;4.30;;;34.00;28.50;;;;;;4945097;29;20442;-85
2023/06/17 10:29:15;;;;;;;3.90;3.60;;;33.70;28.50;;;;;;4925071;29;20491;-86
2023/06/17 10:38:22;;;;;;;4.57;3.80;;;33.80;28.10;;;;;;4940755;29;20451;-87
2023/06/17 10:41:44;;;;;;;;;;;;;;;;;;;;;
2023/06/17 10:44:55;;;;;;;3.67;3.47;;;33.40;28.00;;;;;;4934051;28;20457;-82
2023/06/17 10:51:24;;;;;;;3.80;3.47;;;33.40;27.30;;;;;;4964950;28;20616;-85
2023/06/17 10:54:49;;;;;;;;;;;;;;;;;;;;;
2023/06/17 10:58:15;;;;;;;4.47;4.07;;;33.00;27.30;;;;;;4948857;28;20484;-85
2023/06/17 11:01:40;;;;;;;4.53;3.70;;;33.20;27.90;;;;;;4949809;29;21118;-85
2023/06/17 11:04:51;;;;;;;3.57;3.27;;;33.10;26.60;;;;;;4852595;29;20515;-84
2023/06/17 11:08:00;;;;;;;4.00;3.70;;;33.20;26.40;;;;;;4882499;29;20465;-84
2023/06/17 11:13:54;;;;;;;4.37;3.30;;;33.20;26.80;;;;;;1265650;26;20563;-81
2023/06/17 11:17:22;;;;;;;3.77;3.40;;;33.20;26.90;;;;;;4922107;29;20444;-83
2023/06/17 11:20:35;;;;;;;;;;;;;;;;;;;;;
2023/06/17 11:23:31;;;;;;;3.73;3.43;;;33.70;25.80;;;;;;4918910;29;20458;-82
2023/06/17 11:26:20;;;;;;;3.70;3.40;;;33.50;25.90;;;;;;4901886;29;20958;-84
2023/06/17 11:29:26;;;;;;;3.80;3.50;;;34.90;23.90;;;;;;4902118;29;20465;-83
2023/06/17 11:32:46;;;;;;;4.27;3.93;;;34.70;23.00;;;;;;4958661;23;20494;-84
2023/06/17 11:35:29;;;;;;;3.53;3.33;;;33.70;25.80;;;;;;4935248;29;20499;-85
2023/06/17 11:38:20;;;;;;;3.50;3.30;;;33.00;26.30;;;;;;4921993;29;20522;-82
2023/06/17 11:41:36;;;;;;;;;;;;;;;;;;;;;
2023/06/17 11:44:59;;;;;;;3.33;3.03;;;33.70;26.00;;;;;;4861462;29;20558;-83
2023/06/17 11:48:24;;;;;;;4.00;2.70;;;34.10;25.00;;;;;;4861576;29;20537;-83
2023/06/17 12:01:02;;;;;;;;;;;;;;;;;;;;;
2023/06/17 12:08:41;;;;;;;;;;;;;;;;;;;;;
2023/06/17 12:15:01;;;;;;;3.37;3.17;;;33.50;24.70;;;;;;5516741;23;20492;-83
2023/06/17 12:27:28;;;;;;;3.33;3.03;;;35.70;22.80;;;;;;1220091;23;20516;-83
2023/06/17 12:30:29;;;;;;;3.70;3.40;;;34.70;23.20;;;;;;4917772;29;20458;-83
2023/06/17 12:33:51;;;;;;;3.23;2.93;;;34.20;24.10;;;;;;4905998;29;20870;-82
2023/06/17 12:40:50;;;;;;;3.10;2.90;;;33.60;24.80;;;;;;4928472;29;20486;-84
2023/06/17 12:53:11;;;;;;;3.90;2.70;;;34.70;23.20;;;;;;3311467;26;20479;-86
2023/06/17 12:56:21;;;;;;;3.60;3.30;;;34.70;23.00;;;;;;4939044;28;20468;-83
2023/06/17 12:59:18;;;;;;;2.77;2.57;;;34.70;23.70;;;;;;4961867;29;20436;-84
2023/06/17 13:02:32;;;;;;;3.20;2.87;;;34.60;23.50;;;;;;5004249;23;20507;-84
2023/06/17 13:06:19;;;;;;;2.70;2.50;;;34.30;23.00;;;;;;4938253;29;20472;-84
2023/06/17 13:09:13;;;;;;;3.13;2.67;;;34.00;23.10;;;;;;4955556;29;20458;-84
2023/06/17 13:21:16;;;;;;;2.50;2.30;;;33.30;23.20;;;;;;4847945;29;20510;-83
2023/06/17 13:24:31;;;;;;;2.90;2.70;;;33.10;24.20;;;;;;4855721;29;20433;-84
2023/06/17 13:31:36;;;;;;;3.17;2.10;;;33.60;24.60;;;;;;4855827;29;20453;-83
2023/06/17 13:34:33;;;;;;;3.00;2.70;;;33.10;24.20;;;;;;4834701;29;20460;-82
2023/06/17 13:38:19;;;;;;;3.77;2.70;;;32.80;24.00;;;;;;4849028;29;20462;-84
2023/06/17 13:46:36;;;;;;;2.70;2.50;;;33.30;24.10;;;;;;4959189;29;20506;-83
2023/06/17 13:49:43;;;;;;;3.40;3.10;;;33.10;24.30;;;;;;4964292;29;20571;-84
2023/06/17 14:19:41;;;;;;;2.40;2.30;;;32.30;23.40;;;;;;5446858;23;20558;-82
2023/06/17 14:22:31;;;;;;;3.20;2.40;;;32.70;22.00;;;;;;4925444;29;20585;-85
2023/06/17 14:25:24;;;;;;;2.50;2.30;;;32.50;23.40;;;;;;4902032;29;20449;-84
2023/06/17 14:28:35;;;;;;;2.57;2.37;;;32.40;23.90;;;;;;4906193;29;20474;-85
2023/06/17 14:31:27;;;;;;;2.50;1.97;;;32.70;22.50;;;;;;5007781;23;20498;-86
2023/06/17 14:34:31;;;;;;;1.93;1.83;;;32.80;23.20;;;;;;4923716;29;20526;-85
2023/06/17 14:37:40;;;;;;;;;;;;;;;;;;;;;
2023/06/17 14:40:52;;;;;;;3.00;2.80;;;32.40;22.20;;;;;;4939319;23;20481;-83
2023/06/17 14:43:29;;;;;;;2.30;2.17;;;32.60;23.90;;;;;;4914224;29;20450;-85
2023/06/17 14:46:32;;;;;;;2.63;2.43;;;33.00;23.90;;;;;;4855281;29;20459;-83
2023/06/17 14:53:19;;;;;;;3.20;2.97;;;32.10;24.20;;;;;;4983376;23;20507;-83
2023/06/17 14:56:41;;;;;;;6.43;2.77;;;32.10;24.50;;;;;;4872160;29;20470;-83
2023/06/17 14:59:44;;;;;;;3.30;3.00;;;32.10;24.70;;;;;;4815164;29;20462;-84
2023/06/17 15:03:08;;;;;;;6.10;2.70;;;32.70;24.50;;;;;;5384781;23;20524;-86
2023/06/17 15:06:25;;;;;;;2.57;2.37;;;32.20;24.60;;;;;;4931197;29;20417;-84
2023/06/17 15:09:34;;;;;;;2.87;2.67;;;32.00;24.40;;;;;;4898185;29;20478;-85
2023/06/17 15:16:10;;;;;;;;;;;;;;;;;;;;;
2023/06/17 15:19:07;;;;;;;4.20;2.70;;;32.10;23.60;;;;;;4945704;29;21137;-85
2023/06/17 15:22:18;;;;;;;3.43;3.13;;;32.00;24.00;;;;;;4926278;29;20473;-83
2023/06/17 15:25:07;;;;;;;3.20;3.00;;;32.00;24.60;;;;;;4935474;29;20478;-85
2023/06/17 15:28:09;;;;;;;3.17;2.87;;;32.10;24.50;;;;;;4918841;29;20455;-84
2023/06/17 15:31:25;;;;;;;2.73;2.53;;;31.90;24.30;;;;;;4929050;29;20500;-83
2023/06/17 15:34:30;;;;;;;2.47;2.27;;;32.10;23.70;;;;;;4928058;29;20451;-86
2023/06/17 15:37:35;;;;;;;;;;;;;;;;;;;;;
2023/06/17 15:40:30;;;;;;;2.80;2.60;;;31.80;23.20;;;;;;4945249;29;20469;-85
2023/06/17 15:43:33;;;;;;;2.30;2.13;;;31.60;23.20;;;;;;4931852;29;20541;-83
2023/06/17 15:46:47;;;;;;;2.43;2.23;;;31.60;22.50;;;;;;4923505;29;20495;-84
2023/06/17 15:49:37;;;;;;;;;;;;;;;;;;;;;
2023/06/17 15:56:58;;;;;;;2.77;2.57;;;31.90;22.70;;;;;;4945804;29;20968;-81
2023/06/17 16:20:04;;;;;;;3.20;2.67;;;31.30;24.00;;;;;;4947217;29;20462;-84
2023/06/17 16:23:16;;;;;;;3.47;3.17;;;31.10;23.90;;;;;;4921061;29;20549;-85
2023/06/17 16:26:15;;;;;;;;;;;;;;;;;;;;;
2023/06/17 16:28:59;;;;;;;2.83;2.63;;;30.80;24.30;;;;;;4925536;29;20459;-84
2023/06/17 16:35:22;;;;;;;2.90;2.60;;;30.90;24.00;;;;;;4925869;29;20457;-83
2023/06/17 16:38:20;;;;;;;4.30;3.90;;;30.90;23.90;;;;;;4920407;29;20443;-84
2023/06/17 16:41:40;;;;;;;4.47;4.07;;;30.90;24.50;;;;;;4916292;29;20487;-87
2023/06/17 16:44:33;;;;;;;3.57;3.27;;;30.80;24.80;;;;;;4912452;29;20507;-85
2023/06/17 16:47:32;;;;;;;3.50;3.13;;;30.70;25.00;;;;;;4900981;29;20507;-83
2023/06/17 16:50:21;;;;;;;2.80;2.60;;;30.70;25.20;;;;;;4911711;29;20495;-86
2023/06/17 16:53:33;;;;;;;;;;;;;;;;;;;;;
2023/06/17 16:56:41;;;;;;;3.40;3.10;;;31.30;24.70;;;;;;4911617;29;20464;-84
2023/06/17 17:03:03;;;;;;;3.57;3.27;;;31.20;24.30;;;;;;4890524;23;20489;-85
2023/06/17 17:06:11;;;;;;;3.40;3.10;;;31.00;24.30;;;;;;4953301;29;20478;-83
2023/06/17 17:12:32;;;;;;;5.90;3.37;;;30.80;24.90;;;;;;4964411;29;20476;-83
2023/06/17 17:15:48;;;;;;;3.30;3.00;;;30.90;24.90;;;;;;4938212;29;20527;-84
2023/06/17 17:18:45;;;;;;;3.60;2.73;;;30.70;25.00;;;;;;4944568;29;20508;-84
2023/06/17 17:21:33;;;;;;;4.37;4.07;;;30.60;25.00;;;;;;4955709;29;20508;-83
2023/06/17 17:24:31;;;;;;;3.20;2.87;;;30.60;25.20;;;;;;4948451;29;20445;-83
2023/06/17 17:27:40;;;;;;;4.47;4.07;;;30.60;25.10;;;;;;4964663;28;20459;-82
2023/06/17 17:30:59;;;;;;;3.77;3.47;;;30.60;25.10;;;;;;4935156;29;20461;-83
2023/06/17 17:34:33;;;;;;;3.70;3.40;;;30.60;25.20;;;;;;4952741;28;20512;-83
2023/06/17 17:37:43;;;;;;;;;;;;;;;;;;;;;
2023/06/17 17:40:38;;;;;;;3.50;3.20;;;30.50;25.20;;;;;;4953196;28;20453;-83
2023/06/17 17:43:47;;;;;;;3.20;2.97;;;30.40;25.60;;;;;;4977664;28;20449;-84
2023/06/17 17:46:43;;;;;;;5.50;5.00;;;30.40;25.50;;;;;;4954409;28;20465;-85
2023/06/17 17:49:41;;;;;;;4.60;4.20;;;30.40;25.80;;;;;;4953437;28;20468;-86
2023/06/17 18:01:48;;;;;;;3.60;3.00;;;30.30;25.90;;;;;;4939769;29;20504;-85
2023/06/17 18:08:42;;;;;;;3.33;3.03;;;30.20;26.00;;;;;;4912761;29;20439;-86
2023/06/17 18:11:48;;;;;;;;;;;;;;;;;;;;;
2023/06/17 18:15:25;;;;;;;4.60;4.20;;;30.20;25.90;;;;;;4924770;29;20425;-84
2023/06/17 18:18:32;;;;;;;3.43;3.13;;;30.00;26.00;;;;;;4909102;29;20482;-84
2023/06/17 18:22:01;;;;;;;3.63;3.33;;;29.90;26.10;;;;;;4936133;23;20695;-82
2023/06/17 18:25:15;;;;;;;3.73;3.43;;;29.80;26.20;;;;;;4847746;29;20453;-83
2023/06/17 18:28:22;;;;;;;3.90;3.60;;;29.70;26.10;;;;;;4861737;29;20982;-83
2023/06/17 18:31:14;;;;;;;3.43;3.13;;;29.70;26.20;;;;;;4881527;23;20590;-83
2023/06/17 18:34:04;;;;;;;3.83;3.53;;;29.70;26.50;;;;;;4900773;29;20459;-82
2023/06/17 18:37:06;;;;;;;3.67;3.20;;;29.70;26.70;;;;;;4904085;29;20458;-83
2023/06/17 18:39:57;;;;;;;3.50;3.20;;;29.70;27.10;;;;;;4924533;29;20426;-83
2023/06/17 18:42:39;;;;;;;3.23;2.93;;;29.70;27.30;;;;;;4929076;29;20487;-83
2023/06/17 18:45:29;;;;;;;4.50;3.97;;;29.60;27.30;;;;;;4918051;29;20846;-83
2023/06/17 18:48:37;;;;;;;4.07;3.70;;;29.50;27.40;;;;;;4910155;29;20545;-84
2023/06/17 18:51:43;;;;;;;3.77;3.47;;;29.50;27.70;;;;;;4928701;29;20482;-85
2023/06/17 18:54:50;;;;;;;4.40;4.00;;;29.40;27.70;;;;;;4822239;29;20479;-85
2023/06/17 18:57:55;;;;;;;3.87;3.60;;;29.30;27.90;;;;;;4861151;29;20445;-84
2023/06/17 19:03:33;;;;;;;4.67;3.57;;;29.20;28.10;;;;;;4950648;29;20508;-85
2023/06/17 19:06:30;;;;;;;4.37;3.97;;;29.20;28.30;;;;;;4955732;29;20441;-86
2023/06/17 19:09:12;;;;;;;5.73;4.57;;;29.10;28.40;;;;;;4944590;29;20426;-83
2023/06/17 19:11:59;;;;;;;5.30;4.90;;;29.10;28.60;;;;;;4923772;29;20889;-85
2023/06/17 19:14:39;;;;;;;4.53;4.23;;;29.10;28.60;;;;;;4909011;29;20455;-84
2023/06/17 19:17:19;;;;;;;4.27;3.90;;;29.00;28.70;;;;;;4919054;29;20463;-84
2023/06/17 19:20:05;;;;;;;3.90;3.60;;;28.90;28.80;;;;;;4935081;29;20599;-84
2023/06/17 19:22:56;;;;;;;4.57;3.43;;;28.90;28.90;;;;;;4919294;29;20843;-84
2023/06/17 19:25:45;;;;;;;4.07;3.77;;;28.90;28.90;;;;;;4923767;29;21017;-84
2023/06/17 19:28:44;;;;;;;4.03;3.73;;;28.90;29.00;;;;;;4913261;29;20467;-83
2023/06/17 19:32:01;;;;;;;4.50;3.90;;;28.80;29.00;;;;;;4930304;29;20992;-82
2023/06/17 19:35:07;;;;;;;6.90;6.40;;;28.70;29.20;;;;;;4928489;29;20447;-83
2023/06/17 19:37:58;;;;;;;4.90;4.43;;;28.70;29.30;;;;;;4934013;29;20457;-86
2023/06/17 19:46:07;;;;;;;4.73;4.43;;;28.70;29.40;;;;;;4956604;29;20697;-84
2023/06/17 19:49:01;;;;;;;4.93;4.57;;;28.60;29.40;;;;;;4936712;29;20510;-85
2023/06/17 19:52:16;;;;;;;6.30;5.50;;;28.60;29.40;;;;;;4924870;29;20503;-85
2023/06/17 19:55:15;;;;;;;5.27;4.50;;;28.50;29.60;;;;;;4931454;29;20591;-82
2023/06/17 19:58:02;;;;;;;5.07;4.47;;;28.40;29.70;;;;;;4914519;29;20493;-83
2023/06/17 20:01:01;;;;;;;5.30;4.20;;;28.40;29.80;;;;;;4938088;29;20489;-83
2023/06/17 20:04:25;;;;;;;4.70;4.30;;;28.30;30.00;;;;;;4929701;29;20425;-84
2023/06/17 20:07:31;;;;;;;4.77;4.37;;;28.30;30.00;;;;;;4932207;29;20873;-82
2023/06/17 20:13:52;;;;;;;5.37;4.87;;;28.30;30.30;;;;;;4957680;28;20476;-85
2023/06/17 20:16:54;;;;;;;6.83;4.87;;;28.20;30.40;;;;;;4958270;28;20469;-86
2023/06/17 20:20:18;;;;;;;6.23;4.93;;;28.10;30.50;;;;;;4921915;29;20477;-85
2023/06/17 20:23:12;;;;;;;4.00;3.70;;;28.00;30.70;;;;;;4916306;29;20489;-85
2023/06/17 20:26:35;;;;;;;6.40;4.33;;;28.00;31.10;;;;;;4950429;29;20488;-83
2023/06/17 20:29:26;;;;;;;4.37;4.00;;;28.00;31.40;;;;;;4928552;29;20449;-83
2023/06/17 20:32:34;;;;;;;;;;;;;;;;;;;;;
2023/06/17 20:35:38;;;;;;;5.20;4.80;;;27.80;31.30;;;;;;4944087;29;20472;-82
2023/06/17 20:38:41;;;;;;;7.33;6.70;;;27.80;31.70;;;;;;4924579;29;20473;-82
2023/06/17 20:41:28;;;;;;;7.17;6.47;;;27.70;31.90;;;;;;4926018;29;20524;-82
2023/06/17 20:44:26;;;;;;;8.80;7.90;;;27.60;32.10;;;;;;4927574;29;20529;-83
2023/06/17 20:47:33;;;;;;;7.87;7.17;;;27.60;32.30;;;;;;4925195;29;20462;-82
2023/06/17 20:50:33;;;;;;;11.23;7.40;;;27.60;32.70;;;;;;4925473;29;20933;-82
2023/06/17 20:53:49;;;;;;;9.40;7.57;;;27.50;33.30;;;;;;4945422;29;20535;-83
2023/06/17 20:56:44;;;;;;;8.77;7.97;;;27.50;33.10;;;;;;4929900;29;20510;-83
2023/06/17 20:59:49;;;;;;;8.97;8.10;;;27.40;33.50;;;;;;4920673;29;20525;-85
2023/06/17 21:03:30;;;;;;;8.63;7.83;;;27.40;33.80;;;;;;4931451;29;20481;-87
2023/06/17 21:07:00;;;;;;;8.60;7.70;;;27.30;34.10;;;;;;4928447;29;20459;-83
2023/06/17 21:10:49;;;;;;;9.57;8.57;;;27.20;34.60;;;;;;4921649;29;20465;-83
2023/06/17 21:14:03;;;;;;;8.83;7.93;;;27.10;35.00;;;;;;4916759;29;20561;-83
2023/06/17 21:20:37;;;;;;;11.87;9.50;;;27.00;35.50;;;;;;4942259;29;20605;-84
2023/06/17 21:24:05;;;;;;;11.13;8.50;;;26.90;35.60;;;;;;4926653;29;20568;-83
2023/06/17 21:39:27;;;;;;;13.07;10.03;;;26.60;43.40;;;;;;4956480;28;20477;-87
2023/06/17 21:48:11;;;;;;;;;;;;;;;;;;;;;
2023/06/17 21:51:17;;;;;;;11.97;9.10;;;26.60;43.90;;;;;;4926691;29;20480;-84
2023/06/17 21:54:35;;;;;;;9.17;8.43;;;26.50;44.60;;;;;;4867449;29;20458;-83
2023/06/17 22:01:45;;;;;;;9.60;8.70;;;26.40;45.10;;;;;;4891769;29;20443;-83
2023/06/17 22:05:30;;;;;;;10.47;9.00;;;26.40;45.00;;;;;;4813863;29;21031;-86
2023/06/17 22:42:47;;;;;;;10.60;9.60;;;25.20;52.60;;;;;;5144971;23;20484;-84
2023/06/17 22:45:47;;;;;;;10.90;9.80;;;24.90;54.60;;;;;;4967120;28;20963;-85
2023/06/17 22:48:50;;;;;;;10.20;9.00;;;24.60;54.70;;;;;;4940132;28;20834;-85
2023/06/17 22:52:33;;;;;;;;;;;;;;;;;;;;;
2023/06/17 22:55:21;;;;;;;9.93;8.87;;;24.50;51.30;;;;;;4910622;29;20494;-85
2023/06/17 22:58:20;;;;;;;8.17;7.37;;;24.30;51.70;;;;;;4936756;28;20456;-84
2023/06/17 23:01:31;;;;;;;9.00;8.00;;;24.30;50.40;;;;;;4867790;29;20504;-85
2023/06/17 23:05:01;;;;;;;10.23;8.40;;;24.30;49.40;;;;;;4870094;29;20441;-86
2023/06/17 23:08:08;;;;;;;8.57;7.17;;;24.30;49.20;;;;;;4851717;29;20486;-83
2023/06/17 23:13:56;;;;;;;8.50;7.60;;;24.30;48.20;;;;;;4941242;23;21266;-84
2023/06/17 23:17:13;;;;;;;;;;;;;;;;;;;;;
2023/06/17 23:20:35;;;;;;;7.83;7.13;;;24.10;49.00;;;;;;4890473;29;20486;-84
2023/06/17 23:23:56;;;;;;;9.20;7.40;;;24.10;49.50;;;;;;4894036;29;20487;-84
2023/06/17 23:26:47;;;;;;;8.93;8.07;;;24.00;49.40;;;;;;4805848;29;20467;-84
2023/06/17 23:29:58;;;;;;;9.50;8.60;;;23.90;50.00;;;;;;4894837;29;20506;-85
2023/06/17 23:33:47;;;;;;;9.83;8.87;;;23.80;50.60;;;;;;4890101;29;20438;-84
2023/06/17 23:37:25;;;;;;;11.03;9.93;;;23.70;51.20;;;;;;4880751;29;20483;-84
2023/06/17 23:40:54;;;;;;;11.97;8.80;;;23.70;52.10;;;;;;4883906;29;20477;-84
2023/06/17 23:44:24;;;;;;;10.63;9.53;;;23.70;52.90;;;;;;4892697;29;20486;-83
2023/06/17 23:58:42;;;;;;;9.37;8.43;;;23.10;53.10;;;;;;4857400;29;20465;-86
